Time;durP1;ratioP1;P1;durP2;ratioP2;P2;SDS_P1;SDS_P2;PMS_P1;PMS_P2;Temp;Humidity;BMP_temperature;BMP_pressure;BME280_temperature;BME280_humidity;BME280_pressure;Samples;Min_cycle;Max_cycle;Signal;HPM_P1;HPM_P2
2023/06/20 00:00:39;;;;;;;14.85;12.32;;;;;;;21.08;77.44;99468.94;5053717;28;20090;-84
2023/06/20 00:03:05;;;;;;;13.13;11.93;;;;;;;20.95;77.74;99450.72;5052409;28;20035;-84
2023/06/20 00:05:30;;;;;;;14.60;12.82;;;;;;;20.89;78.08;99445.97;5053265;28;20469;-84
2023/06/20 00:07:55;;;;;;;13.63;12.25;;;;;;;20.84;78.45;99450.88;5053730;28;20029;-84
2023/06/20 00:10:21;;;;;;;13.95;12.38;;;;;;;20.91;78.67;99466.03;5053423;28;20024;-83
2023/06/20 00:12:47;;;;;;;14.32;12.93;;;;;;;20.79;79.41;99451.28;5053501;28;20537;-84
2023/06/20 00:15:12;;;;;;;12.98;11.77;;;;;;;20.73;78.97;99443.06;5053777;28;20036;-83
2023/06/20 00:17:38;;;;;;;13.07;11.77;;;;;;;20.79;79.17;99458.41;5053168;28;20025;-84
2023/06/20 00:20:08;;;;;;;15.23;13.27;;;;;;;20.67;79.63;99436.53;5053424;28;20671;-84
2023/06/20 00:22:34;;;;;;;13.48;12.15;;;;;;;20.63;80.12;99448.38;5053221;28;20037;-84
2023/06/20 00:25:04;;;;;;;13.50;12.20;;;;;;;20.71;80.05;99466.22;5053445;28;20032;-84
2023/06/20 00:27:29;;;;;;;15.18;13.57;;;;;;;20.56;80.72;99449.91;5053038;28;20039;-84
2023/06/20 00:29:55;;;;;;;14.18;12.85;;;;;;;20.49;80.55;99433.78;5053198;28;20025;-83
2023/06/20 00:32:20;;;;;;;14.80;13.25;;;;;;;20.46;80.92;99430.53;5052856;28;20029;-84
2023/06/20 00:34:46;;;;;;;13.85;12.57;;;;;;;20.63;81.09;99473.03;5053159;28;20049;-84
2023/06/20 00:37:11;;;;;;;13.88;12.48;;;;;;;20.60;81.15;99462.72;5053308;28;20100;-84
2023/06/20 00:39:36;;;;;;;13.88;12.48;;;;;;;20.34;81.51;99417.44;5051528;28;20035;-84
2023/06/20 00:42:04;;;;;;;15.50;12.50;;;;;;;20.41;81.48;99437.09;5053035;28;20480;-83
2023/06/20 00:44:29;;;;;;;13.65;12.35;;;;;;;20.54;81.88;99454.53;5052593;28;20037;-84
2023/06/20 00:46:54;;;;;;;14.02;12.52;;;;;;;20.35;81.55;99426.22;5052834;28;20029;-83
2023/06/20 00:49:20;;;;;;;14.38;12.45;;;;;;;20.47;82.33;99464.78;5052471;28;20036;-83
2023/06/20 00:51:45;;;;;;;14.38;12.95;;;;;;;20.26;82.26;99432.34;5052810;28;20017;-83
2023/06/20 00:54:11;;;;;;;13.40;12.10;;;;;;;20.45;82.17;99466.75;5051544;28;20095;-83
2023/06/20 00:56:37;;;;;;;15.20;13.45;;;;;;;20.34;82.50;99451.00;5052546;28;20025;-84
2023/06/20 00:59:03;;;;;;;13.95;12.55;;;;;;;20.11;82.77;99418.69;5052599;28;20033;-84
2023/06/20 01:01:31;;;;;;;14.20;12.73;;;;;;;20.20;82.92;99441.66;5051056;28;20083;-84
2023/06/20 01:03:58;;;;;;;14.57;12.93;;;;;;;20.21;83.24;99453.91;5052605;28;20029;-83
2023/06/20 01:06:23;;;;;;;14.43;12.93;;;;;;;20.27;83.43;99457.81;5052408;28;20079;-84
2023/06/20 01:09:08;;;;;;;14.02;12.57;;;;;;;20.04;83.76;99428.97;5052515;28;20412;-83
2023/06/20 01:11:51;;;;;;;13.35;12.05;;;;;;;20.02;84.03;99425.66;5052120;28;20021;-83
2023/06/20 01:14:44;;;;;;;13.98;12.57;;;;;;;20.18;83.71;99448.88;5052132;28;20183;-83
2023/06/20 01:17:21;;;;;;;14.65;13.13;;;;;;;20.15;84.31;99450.03;5052463;28;20028;-83
2023/06/20 01:19:56;;;;;;;14.30;12.90;;;;;;;20.17;84.28;99453.34;5052374;28;20054;-84
2023/06/20 01:22:43;;;;;;;13.15;11.88;;;;;;;20.19;84.14;99453.22;5050500;28;20362;-83
2023/06/20 01:25:17;;;;;;;13.63;12.32;;;;;;;19.88;84.09;99410.16;5052266;28;20067;-83
2023/06/20 01:27:57;;;;;;;14.23;12.82;;;;;;;19.98;83.79;99426.91;5052221;28;20025;-83
2023/06/20 01:30:30;;;;;;;12.88;11.65;;;;;;;19.99;84.63;99435.66;5051841;28;20465;-83
2023/06/20 01:33:02;;;;;;;15.23;13.73;;;;;;;20.10;84.69;99452.25;5052159;28;20114;-83
2023/06/20 01:35:31;;;;;;;14.55;13.13;;;;;;;20.03;85.18;99437.06;5052026;28;20135;-83
2023/06/20 01:38:02;;;;;;;14.68;12.52;;;;;;;19.89;84.94;99423.28;5052173;28;20025;-83
2023/06/20 01:40:28;;;;;;;15.18;13.63;;;;;;;19.96;84.90;99435.94;5051849;28;20037;-83
2023/06/20 01:42:58;;;;;;;14.43;13.02;;;;;;;19.90;84.73;99432.03;5051921;28;20393;-83
2023/06/20 01:45:27;;;;;;;14.57;13.07;;;;;;;19.94;84.79;99442.19;5051495;28;20025;-83
2023/06/20 01:47:58;;;;;;;17.42;14.18;;;;;;;19.79;84.66;99422.41;5051836;28;20393;-83
2023/06/20 01:50:25;;;;;;;17.20;13.90;;;;;;;19.74;85.08;99410.56;5051491;28;20040;-83
2023/06/20 01:52:53;;;;;;;14.63;13.13;;;;;;;19.63;85.10;99404.41;5052195;28;20025;-83
2023/06/20 01:55:20;;;;;;;17.27;14.80;;;;;;;19.71;85.43;99422.22;5051972;28;20029;-83
2023/06/20 01:57:47;;;;;;;15.77;14.18;;;;;;;19.75;85.40;99428.09;5058188;28;20158;-83
2023/06/20 02:00:14;;;;;;;17.60;14.88;;;;;;;19.74;85.45;99432.53;5058411;28;20041;-83
2023/06/20 02:02:41;;;;;;;15.27;12.38;;;;;;;19.78;85.81;99439.22;5058324;28;20032;-83
2023/06/20 02:05:08;;;;;;;15.68;14.07;;;;;;;19.66;86.61;99437.66;5058304;28;20044;-83
2023/06/20 02:07:36;;;;;;;15.48;13.88;;;;;;;19.63;86.57;99435.28;5058133;28;20029;-83
2023/06/20 02:10:03;;;;;;;16.58;14.73;;;;;;;19.53;86.68;99418.53;5058518;28;20139;-83
2023/06/20 02:12:30;;;;;;;19.58;13.88;;;;;;;19.53;86.27;99422.03;5057970;28;20082;-83
2023/06/20 02:14:56;;;;;;;16.08;14.48;;;;;;;19.51;86.35;99413.41;5058430;28;20029;-83
2023/06/20 02:17:22;;;;;;;17.45;15.48;;;;;;;19.65;87.52;99443.94;5058213;28;20111;-83
2023/06/20 02:19:48;;;;;;;17.33;15.18;;;;;;;19.44;87.38;99418.38;5058343;28;20064;-83
2023/06/20 02:22:14;;;;;;;17.02;13.90;;;;;;;19.57;87.26;99449.84;5058603;28;20493;-83
2023/06/20 02:24:43;;;;;;;16.30;14.10;;;;;;;19.51;87.05;99439.81;5058064;28;20060;-83
2023/06/20 02:27:13;;;;;;;16.25;14.65;;;;;;;19.52;87.34;99444.13;5058158;28;20104;-83
2023/06/20 02:29:39;;;;;;;14.48;13.07;;;;;;;19.32;87.18;99419.44;5058066;28;20472;-83
2023/06/20 02:32:07;;;;;;;15.32;13.70;;;;;;;19.24;87.44;99410.50;5058295;28;20064;-83
2023/06/20 02:34:34;;;;;;;15.13;13.63;;;;;;;19.43;87.91;99443.13;5058051;28;20120;-83
2023/06/20 02:37:00;;;;;;;15.07;13.50;;;;;;;19.37;87.87;99446.28;5058235;28;20036;-83
2023/06/20 02:39:25;;;;;;;16.77;15.00;;;;;;;19.36;88.90;99451.69;5057805;28;20539;-83
2023/06/20 02:41:51;;;;;;;15.98;14.38;;;;;;;19.15;89.21;99417.41;5058287;28;20060;-83
2023/06/20 02:44:16;;;;;;;17.90;14.30;;;;;;;19.16;89.53;99425.19;5058081;28;20039;-83
2023/06/20 02:47:04;;;;;;;17.67;15.63;;;;;;;19.30;89.21;99446.94;5056625;28;20045;-83
2023/06/20 02:50:03;;;;;;;16.63;14.93;;;;;;;19.29;89.02;99447.91;5057982;28;20037;-83
2023/06/20 02:52:28;;;;;;;16.00;14.30;;;;;;;19.26;90.01;99445.56;5058378;28;20500;-83
2023/06/20 02:55:44;;;;;;;16.20;13.70;;;;;;;19.27;89.70;99447.22;5058165;28;20029;-83
2023/06/20 02:58:15;;;;;;;17.15;13.82;;;;;;;18.98;89.37;99397.75;5055436;28;20033;-83
2023/06/20 03:00:48;;;;;;;15.43;13.63;;;;;;;19.25;89.06;99441.22;5055202;28;20938;-83
2023/06/20 03:03:18;;;;;;;14.52;13.13;;;;;;;19.10;89.18;99420.47;5055438;28;20028;-83
2023/06/20 03:05:45;;;;;;;16.25;14.60;;;;;;;19.15;89.08;99417.41;5055295;28;20477;-83
2023/06/20 03:08:16;;;;;;;17.13;14.40;;;;;;;19.31;89.41;99446.81;5052173;28;20064;-83
2023/06/20 03:10:43;;;;;;;16.58;14.93;;;;;;;19.18;89.35;99417.16;5051906;28;20036;-83
2023/06/20 03:13:13;;;;;;;16.05;14.35;;;;;;;19.16;89.72;99406.72;5052182;28;20033;-83
2023/06/20 03:15:39;;;;;;;17.02;15.23;;;;;;;19.22;89.67;99410.66;5052042;28;20063;-83
2023/06/20 03:18:04;;;;;;;16.13;14.52;;;;;;;19.13;89.52;99388.53;5052270;28;20146;-83
2023/06/20 03:20:30;;;;;;;16.38;14.68;;;;;;;19.43;89.58;99434.38;5051905;28;20045;-83
2023/06/20 03:22:55;;;;;;;15.63;14.13;;;;;;;19.24;89.64;99402.59;5052382;28;20055;-83
2023/06/20 03:25:21;;;;;;;15.52;13.93;;;;;;;19.38;90.21;99432.13;5051896;28;20025;-83
2023/06/20 03:27:46;;;;;;;16.77;14.40;;;;;;;19.42;89.34;99441.47;5051752;28;20051;-83
2023/06/20 03:30:12;;;;;;;17.17;15.40;;;;;;;19.52;89.41;99452.06;5051994;28;20515;-83
2023/06/20 03:32:38;;;;;;;17.70;15.88;;;;;;;19.33;89.96;99421.09;5052061;28;20396;-83
2023/06/20 03:35:04;;;;;;;16.85;15.18;;;;;;;19.39;89.80;99420.59;5054443;28;20128;-83
2023/06/20 03:37:29;;;;;;;16.88;15.18;;;;;;;19.55;89.75;99458.84;5053985;28;20116;-83
2023/06/20 03:39:55;;;;;;;16.25;14.73;;;;;;;19.62;89.98;99466.16;5054024;28;20021;-84
2023/06/20 03:42:20;;;;;;;15.57;14.07;;;;;;;19.63;89.48;99462.53;5054283;28;20032;-83
2023/06/20 03:44:45;;;;;;;16.33;14.63;;;;;;;19.72;89.43;99466.22;5054059;28;20036;-83
2023/06/20 03:47:10;;;;;;;16.48;14.75;;;;;;;19.72;89.19;99457.41;5054086;28;20031;-84
2023/06/20 03:49:36;;;;;;;16.63;14.93;;;;;;;19.74;88.72;99452.84;5053773;28;20036;-83
2023/06/20 03:52:01;;;;;;;17.85;16.02;;;;;;;19.75;88.35;99444.78;5053812;28;20051;-84
2023/06/20 03:54:27;;;;;;;15.75;14.25;;;;;;;19.80;88.13;99452.28;5053657;28;20087;-83
2023/06/20 03:56:52;;;;;;;21.75;16.30;;;;;;;20.00;87.89;99469.88;5054026;28;20053;-83
2023/06/20 03:59:18;;;;;;;18.25;15.40;;;;;;;19.99;87.41;99449.72;5053897;28;20036;-83
2023/06/20 04:01:43;;;;;;;16.92;15.20;;;;;;;20.28;87.14;99483.31;5053601;28;20903;-84
2023/06/20 04:04:09;;;;;;;18.75;15.95;;;;;;;20.28;86.34;99470.06;5053726;28;20032;-83
2023/06/20 04:06:35;;;;;;;17.08;15.43;;;;;;;20.34;86.61;99461.56;5053570;28;20025;-84
2023/06/20 04:09:00;;;;;;;16.15;14.57;;;;;;;20.59;86.10;99487.50;5053527;28;20147;-84
2023/06/20 04:11:25;;;;;;;18.02;16.17;;;;;;;20.59;85.01;99452.28;5052173;28;20025;-83
2023/06/20 04:13:51;;;;;;;16.98;15.38;;;;;;;20.78;84.29;99467.31;5053724;28;20468;-84
2023/06/20 04:16:16;;;;;;;17.40;15.32;;;;;;;21.13;83.59;99472.00;5052310;28;20032;-84
2023/06/20 04:18:41;;;;;;;16.23;14.63;;;;;;;21.42;82.88;99472.78;5052923;28;20033;-84
2023/06/20 04:21:07;;;;;;;16.02;14.52;;;;;;;21.77;81.55;99475.69;5053437;28;20048;-84
2023/06/20 04:23:33;;;;;;;18.45;15.65;;;;;;;22.01;80.22;99468.03;5053071;28;20024;-83
2023/06/20 04:25:58;;;;;;;17.25;15.55;;;;;;;22.65;77.96;99471.47;5052165;28;20021;-84
2023/06/20 04:28:23;;;;;;;16.75;15.05;;;;;;;23.32;74.78;99439.94;5053113;28;20571;-84
2023/06/20 04:30:50;;;;;;;16.60;15.10;;;;;;;24.46;71.38;99445.66;5052984;28;20107;-84
2023/06/20 04:33:16;;;;;;;18.23;16.42;;;;;;;25.19;68.85;99433.28;5053185;28;20114;-84
2023/06/20 04:35:41;;;;;;;18.23;16.38;;;;;;;25.81;67.25;99468.09;5052618;28;20476;-84
2023/06/20 04:38:07;;;;;;;17.27;15.57;;;;;;;25.56;66.91;99462.00;5053090;28;20071;-84
2023/06/20 04:40:32;;;;;;;17.58;15.85;;;;;;;24.88;68.78;99445.47;5052317;28;20079;-84
2023/06/20 04:42:57;;;;;;;18.33;16.45;;;;;;;24.43;69.84;99435.31;5051774;28;20392;-84
2023/06/20 04:45:26;;;;;;;16.77;15.05;;;;;;;24.28;70.76;99459.09;5052858;28;20051;-84
2023/06/20 04:47:51;;;;;;;17.70;15.85;;;;;;;24.45;70.56;99467.94;5052696;28;20033;-84
2023/06/20 04:50:17;;;;;;;16.98;15.23;;;;;;;24.73;69.56;99444.47;5051585;28;20033;-84
2023/06/20 04:52:42;;;;;;;17.40;15.63;;;;;;;25.37;68.49;99456.06;5052381;28;20032;-84
2023/06/20 04:55:08;;;;;;;17.35;15.75;;;;;;;25.74;66.36;99461.75;5052575;28;20457;-84
2023/06/20 04:57:33;;;;;;;16.42;14.82;;;;;;;25.29;66.99;99418.78;5052777;28;20107;-84
2023/06/20 04:59:59;;;;;;;15.88;14.40;;;;;;;25.21;67.79;99432.13;5052481;28;20029;-84
2023/06/20 05:02:25;;;;;;;18.10;16.40;;;;;;;24.98;68.80;99433.78;5052601;28;20057;-84
2023/06/20 05:04:51;;;;;;;16.05;14.65;;;;;;;24.68;69.44;99409.53;5050857;28;20031;-84
2023/06/20 05:07:17;;;;;;;16.20;14.60;;;;;;;24.86;70.17;99439.50;5052450;28;20468;-84
2023/06/20 05:09:43;;;;;;;16.40;14.70;;;;;;;24.80;69.96;99426.81;5052101;28;20031;-84
2023/06/20 05:12:09;;;;;;;16.23;14.68;;;;;;;25.11;69.39;99450.13;5052685;28;20108;-84
2023/06/20 05:14:34;;;;;;;15.93;14.32;;;;;;;25.25;68.94;99448.59;5052539;28;20116;-84
2023/06/20 05:16:59;;;;;;;16.80;15.27;;;;;;;25.40;67.81;99422.88;5052436;28;20483;-84
2023/06/20 05:19:24;;;;;;;16.95;15.25;;;;;;;25.79;67.40;99443.44;5052533;28;20499;-84
2023/06/20 05:21:50;;;;;;;16.88;15.32;;;;;;;25.73;67.03;99455.59;5052336;28;20074;-84
2023/06/20 05:24:15;;;;;;;16.88;15.38;;;;;;;25.55;67.95;99463.84;5052211;28;20056;-84
2023/06/20 05:26:41;;;;;;;16.80;15.25;;;;;;;25.29;67.92;99444.59;5050599;28;20060;-84
2023/06/20 05:29:06;;;;;;;15.48;14.15;;;;;;;25.16;68.92;99447.78;5052260;28;20402;-84
2023/06/20 05:31:32;;;;;;;15.88;14.38;;;;;;;25.37;68.45;99468.56;5051192;28;20361;-84
2023/06/20 05:33:57;;;;;;;15.07;13.68;;;;;;;25.30;68.37;99448.91;5069221;28;20044;-84
2023/06/20 05:36:23;;;;;;;16.67;15.05;;;;;;;25.57;68.05;99485.81;5069723;28;20039;-84
2023/06/20 05:38:48;;;;;;;16.02;14.52;;;;;;;25.49;67.80;99458.34;5069218;28;20404;-84
2023/06/20 05:41:17;;;;;;;15.93;14.52;;;;;;;25.47;67.71;99460.38;5069591;28;20059;-84
2023/06/20 05:43:42;;;;;;;16.92;15.38;;;;;;;25.45;67.71;99479.22;5052369;28;20135;-84
2023/06/20 05:46:08;;;;;;;16.80;15.18;;;;;;;25.32;68.76;99489.56;5069432;28;20108;-84
2023/06/20 05:48:34;;;;;;;17.20;15.40;;;;;;;25.37;69.34;99481.91;5069680;28;20041;-83
2023/06/20 05:51:00;;;;;;;16.20;14.68;;;;;;;25.60;69.01;99498.81;5069261;28;20468;-84
2023/06/20 05:53:26;;;;;;;15.80;14.40;;;;;;;25.77;68.74;99499.63;5069321;28;20175;-84
2023/06/20 05:55:51;;;;;;;17.08;15.48;;;;;;;26.04;68.12;99502.81;5069122;28;20040;-84
2023/06/20 05:58:18;;;;;;;17.30;15.70;;;;;;;26.19;66.82;99493.06;5069411;28;20029;-84
2023/06/20 06:00:44;;;;;;;16.20;14.77;;;;;;;26.52;66.32;99501.75;5069104;28;20043;-85
2023/06/20 06:03:10;;;;;;;15.25;13.93;;;;;;;26.92;65.72;99505.09;5069402;28;20032;-84
2023/06/20 06:05:35;;;;;;;17.08;15.50;;;;;;;27.00;64.40;99480.13;5055288;28;20041;-84
2023/06/20 06:08:00;;;;;;;17.20;15.63;;;;;;;27.26;64.12;99507.34;5051835;28;20021;-83
2023/06/20 06:10:26;;;;;;;15.48;14.15;;;;;;;27.14;63.91;99518.63;5051726;28;20029;-84
2023/06/20 06:12:51;;;;;;;16.35;14.95;;;;;;;27.31;64.09;99517.47;5051494;28;20022;-84
2023/06/20 06:15:16;;;;;;;16.15;14.80;;;;;;;27.46;62.91;99496.91;5051600;28;20029;-84
2023/06/20 06:17:43;;;;;;;18.08;16.17;;;;;;;27.75;62.62;99508.66;5051401;28;20025;-84
2023/06/20 06:20:12;;;;;;;15.32;13.93;;;;;;;27.83;62.36;99505.88;5051515;28;20538;-84
2023/06/20 06:22:38;;;;;;;15.05;13.57;;;;;;;28.37;62.43;99535.00;5051204;28;20498;-84
2023/06/20 06:25:07;;;;;;;15.80;14.27;;;;;;;29.07;60.70;99531.53;5051679;28;20151;-84
2023/06/20 06:27:34;;;;;;;14.13;12.93;;;;;;;29.94;58.88;99513.34;5051411;28;20553;-84
2023/06/20 06:29:59;;;;;;;14.13;12.93;;;;;;;31.32;56.04;99541.56;5051495;28;20062;-84
2023/06/20 06:32:27;;;;;;;13.93;12.73;;;;;;;32.87;53.58;99525.38;5051425;28;20388;-84
2023/06/20 06:34:53;;;;;;;13.98;12.85;;;;;;;34.17;50.94;99519.97;5051301;28;20053;-84
2023/06/20 06:37:20;;;;;;;15.00;13.65;;;;;;;35.23;48.59;99538.16;5051391;28;20358;-84
2023/06/20 06:39:45;;;;;;;13.70;12.30;;;;;;;36.05;47.53;99541.88;5051387;28;20094;-84
2023/06/20 06:42:11;;;;;;;12.63;11.63;;;;;;;37.02;46.09;99547.22;5051244;28;20481;-85
2023/06/20 06:44:37;;;;;;;13.40;12.32;;;;;;;38.22;44.36;99533.91;5055036;28;20408;-85
2023/06/20 06:47:02;;;;;;;13.50;12.38;;;;;;;39.33;42.73;99529.78;5055102;28;20087;-85
2023/06/20 06:49:27;;;;;;;12.65;11.65;;;;;;;40.44;41.64;99544.97;5053642;28;20031;-85
2023/06/20 06:51:53;;;;;;;13.40;12.30;;;;;;;41.35;40.43;99555.13;5054846;28;20094;-85
2023/06/20 06:54:19;;;;;;;12.90;12.00;;;;;;;42.20;39.52;99550.75;5055135;28;20029;-85
2023/06/20 06:56:45;;;;;;;12.25;11.30;;;;;;;42.85;38.49;99560.47;5054793;28;20115;-85
2023/06/20 06:59:10;;;;;;;13.27;12.10;;;;;;;43.15;37.87;99533.13;5054913;28;20108;-85
2023/06/20 07:01:36;;;;;;;12.05;11.15;;;;;;;43.68;37.01;99549.56;5054682;28;20029;-86
2023/06/20 07:04:01;;;;;;;11.05;10.15;;;;;;;44.11;36.13;99549.59;5054574;28;20024;-86
2023/06/20 07:06:26;;;;;;;11.40;10.38;;;;;;;44.54;35.70;99544.84;5054768;28;20021;-86
2023/06/20 07:08:55;;;;;;;11.88;10.98;;;;;;;44.61;35.15;99539.00;5054838;28;20040;-84
2023/06/20 07:11:20;;;;;;;10.98;10.18;;;;;;;44.72;35.04;99535.00;5054766;28;20025;-84
2023/06/20 07:13:46;;;;;;;10.00;9.30;;;;;;;44.87;34.51;99548.47;5054525;28;20496;-83
2023/06/20 07:16:11;;;;;;;10.43;9.63;;;;;;;44.91;34.01;99552.22;5055180;28;20025;-83
2023/06/20 07:18:36;;;;;;;10.88;10.07;;;;;;;44.76;34.87;99536.84;5054467;28;20468;-83
2023/06/20 07:21:03;;;;;;;11.20;10.40;;;;;;;45.22;34.24;99535.25;5054747;28;20029;-83
2023/06/20 07:23:28;;;;;;;10.43;9.70;;;;;;;45.62;33.95;99538.31;5054762;28;20132;-83
2023/06/20 07:25:53;;;;;;;10.77;9.88;;;;;;;45.93;33.31;99541.25;5054595;28;20056;-82
2023/06/20 07:28:19;;;;;;;9.82;8.93;;;;;;;45.35;32.75;99534.44;5054350;28;20029;-83
2023/06/20 07:30:44;;;;;;;10.80;9.98;;;;;;;44.87;32.93;99542.16;5052714;28;20025;-83
2023/06/20 07:33:09;;;;;;;10.13;9.43;;;;;;;44.93;33.69;99518.97;5053694;28;20082;-83
2023/06/20 07:35:35;;;;;;;9.98;9.25;;;;;;;45.49;32.65;99526.22;5044446;28;20102;-83
2023/06/20 07:38:00;;;;;;;9.95;9.20;;;;;;;45.81;32.45;99524.47;5042717;28;20032;-83
2023/06/20 07:40:25;;;;;;;10.13;9.43;;;;;;;46.21;32.60;99536.53;5041336;28;20029;-83
2023/06/20 07:42:51;;;;;;;10.38;9.48;;;;;;;46.48;32.53;99530.09;5036388;28;20018;-83
2023/06/20 07:45:16;;;;;;;9.63;8.98;;;;;;;46.72;32.26;99521.56;5033974;28;20076;-83
2023/06/20 07:47:41;;;;;;;9.90;9.20;;;;;;;46.85;32.11;99526.16;5033961;28;20022;-84
2023/06/20 07:50:07;;;;;;;10.05;9.15;;;;;;;47.12;31.68;99532.69;5041201;28;20025;-83
2023/06/20 07:52:33;;;;;;;9.90;9.20;;;;;;;47.26;31.82;99525.13;5043117;28;20065;-84
2023/06/20 07:54:58;;;;;;;10.43;9.57;;;;;;;47.27;32.05;99507.44;5040787;28;20024;-84
2023/06/20 07:57:24;;;;;;;10.68;9.93;;;;;;;47.14;32.28;99511.09;5042554;28;20026;-84
2023/06/20 07:59:49;;;;;;;10.18;9.38;;;;;;;47.25;32.55;99512.47;5036560;28;20033;-84
2023/06/20 08:02:15;;;;;;;10.10;9.15;;;;;;;47.23;31.89;99507.25;5040968;28;20039;-84
2023/06/20 08:04:40;;;;;;;10.07;9.38;;;;;;;47.32;31.76;99512.81;5037864;28;20022;-84
2023/06/20 08:07:06;;;;;;;10.45;9.73;;;;;;;47.24;31.86;99510.81;5038738;28;20091;-85
2023/06/20 08:09:31;;;;;;;11.30;10.48;;;;;;;47.09;31.95;99498.28;5033817;28;20072;-84
2023/06/20 08:11:57;;;;;;;11.13;10.30;;;;;;;46.80;32.01;99512.53;5040569;28;20087;-84
2023/06/20 08:14:22;;;;;;;10.98;10.02;;;;;;;45.61;32.35;99507.25;5053494;28;20017;-84
2023/06/20 08:16:47;;;;;;;10.65;9.85;;;;;;;44.03;33.54;99485.19;5053065;28;20033;-84
2023/06/20 08:19:13;;;;;;;10.82;9.85;;;;;;;42.59;35.09;99499.59;5053619;28;20025;-84
2023/06/20 08:21:38;;;;;;;11.40;10.50;;;;;;;40.89;36.31;99503.25;5053416;28;20465;-84
2023/06/20 08:24:04;;;;;;;11.25;10.18;;;;;;;39.67;37.53;99487.47;5053587;28;20104;-84
2023/06/20 08:26:30;;;;;;;11.07;10.13;;;;;;;38.99;38.86;99507.47;5052124;28;20469;-84
2023/06/20 08:28:55;;;;;;;12.18;11.02;;;;;;;37.93;39.54;99485.22;5053186;28;20036;-84
2023/06/20 08:31:20;;;;;;;11.13;10.27;;;;;;;37.13;41.23;99497.44;5053135;28;20029;-84
2023/06/20 08:33:46;;;;;;;12.20;11.30;;;;;;;36.56;42.18;99475.03;5052719;28;20417;-84
2023/06/20 08:36:12;;;;;;;11.88;10.93;;;;;;;36.37;42.06;99501.53;5053392;28;20098;-84
2023/06/20 08:38:38;;;;;;;11.35;10.35;;;;;;;35.97;43.01;99480.72;5051712;28;20021;-84
2023/06/20 08:41:04;;;;;;;12.30;11.30;;;;;;;35.89;42.71;99495.44;5053098;28;20125;-84
2023/06/20 08:43:29;;;;;;;11.07;10.18;;;;;;;35.78;43.26;99493.59;5053111;28;20032;-84
2023/06/20 08:45:55;;;;;;;11.80;10.80;;;;;;;35.58;43.67;99490.47;5052867;28;20408;-84
2023/06/20 08:48:24;;;;;;;12.18;11.07;;;;;;;35.48;44.21;99496.47;5052829;28;20028;-84
2023/06/20 08:50:51;;;;;;;11.85;10.85;;;;;;;35.15;44.05;99467.31;5052510;28;20461;-84
2023/06/20 08:53:17;;;;;;;12.02;10.88;;;;;;;35.14;43.91;99490.81;5052989;28;20020;-84
2023/06/20 08:55:44;;;;;;;11.55;10.57;;;;;;;35.13;44.06;99504.59;5052740;28;20025;-84
2023/06/20 08:58:10;;;;;;;11.77;10.77;;;;;;;34.70;43.47;99484.88;5051441;28;20032;-83
2023/06/20 09:00:37;;;;;;;12.57;11.48;;;;;;;34.64;44.22;99498.50;5052742;28;20025;-84
2023/06/20 09:03:03;;;;;;;11.10;10.20;;;;;;;34.50;43.40;99493.31;5052732;28;20108;-84
2023/06/20 09:05:32;;;;;;;10.82;9.75;;;;;;;34.48;43.89;99498.13;5051759;28;20107;-83
2023/06/20 09:07:58;;;;;;;10.32;9.52;;;;;;;34.33;43.36;99465.25;5051113;28;20055;-83
2023/06/20 09:10:24;;;;;;;10.20;9.40;;;;;;;34.40;43.14;99481.38;5052508;28;20111;-85
2023/06/20 09:12:52;;;;;;;10.02;9.23;;;;;;;34.31;43.30;99480.88;5052252;28;20029;-84
2023/06/20 09:15:23;;;;;;;10.82;9.82;;;;;;;34.39;43.39;99504.91;5069727;28;20041;-84
2023/06/20 09:17:52;;;;;;;11.38;10.38;;;;;;;34.17;43.55;99493.75;5052898;28;20063;-84
2023/06/20 09:20:19;;;;;;;10.57;9.77;;;;;;;34.11;43.80;99485.75;5069680;28;20098;-84
2023/06/20 09:22:44;;;;;;;10.95;9.98;;;;;;;34.01;42.78;99495.22;5069530;28;20020;-84
2023/06/20 09:25:11;;;;;;;11.73;10.73;;;;;;;33.85;42.97;99495.81;5069966;28;20048;-84
2023/06/20 09:27:41;;;;;;;11.10;10.15;;;;;;;33.84;43.94;99490.63;5069767;28;20038;-84
2023/06/20 09:30:07;;;;;;;11.40;10.40;;;;;;;33.72;45.28;99472.50;5052804;28;20044;-84
2023/06/20 09:32:39;;;;;;;11.98;10.88;;;;;;;33.70;44.92;99477.28;5069695;28;20032;-84
2023/06/20 09:35:07;;;;;;;11.88;10.88;;;;;;;33.82;45.47;99500.84;5069164;28;20040;-84
2023/06/20 09:37:47;;;;;;;12.18;11.18;;;;;;;33.69;45.48;99459.44;5069570;28;20141;-84
2023/06/20 09:40:17;;;;;;;13.50;12.30;;;;;;;33.80;45.52;99474.06;5069614;28;20044;-84
2023/06/20 09:42:44;;;;;;;13.32;12.13;;;;;;;33.68;46.40;99483.97;5069383;28;20166;-84
2023/06/20 09:45:11;;;;;;;12.30;11.20;;;;;;;33.50;46.37;99479.38;5068810;28;20543;-84
2023/06/20 09:47:39;;;;;;;13.70;12.40;;;;;;;33.39;46.26;99447.72;5050508;28;20036;-84
2023/06/20 09:50:07;;;;;;;13.07;11.77;;;;;;;33.34;46.32;99451.09;5051902;28;20111;-84
2023/06/20 09:52:43;;;;;;;12.57;11.48;;;;;;;33.20;46.84;99449.56;5051853;28;20410;-84
2023/06/20 09:55:13;;;;;;;12.30;11.30;;;;;;;33.44;46.98;99481.13;5051828;28;20037;-84
2023/06/20 09:57:43;;;;;;;12.70;11.70;;;;;;;33.58;45.94;99478.25;5052024;28;20025;-84
2023/06/20 10:00:14;;;;;;;12.10;11.10;;;;;;;33.40;46.64;99457.47;5052002;28;20068;-84
2023/06/20 10:02:42;;;;;;;11.85;10.75;;;;;;;33.43;46.76;99447.03;5051865;28;20029;-84
2023/06/20 10:05:09;;;;;;;12.73;11.63;;;;;;;33.57;46.96;99460.41;5050367;28;20029;-84
2023/06/20 10:07:37;;;;;;;12.75;11.55;;;;;;;33.57;46.59;99447.75;5051705;28;20090;-84
2023/06/20 10:10:03;;;;;;;12.57;11.38;;;;;;;33.62;46.83;99450.56;5051611;28;20024;-84
2023/06/20 10:12:29;;;;;;;11.98;10.90;;;;;;;33.77;46.65;99471.81;5051796;28;20353;-84
2023/06/20 10:14:56;;;;;;;12.77;11.68;;;;;;;33.75;46.43;99472.06;5051546;28;20033;-84
2023/06/20 10:17:34;;;;;;;12.55;11.55;;;;;;;33.80;46.96;99484.88;5052957;28;20531;-84
2023/06/20 10:20:00;;;;;;;12.50;11.35;;;;;;;33.76;46.64;99445.84;5055442;28;20052;-84
2023/06/20 10:22:37;;;;;;;12.77;11.68;;;;;;;33.88;46.95;99459.41;5054271;28;20041;-84
2023/06/20 10:25:03;;;;;;;13.88;12.75;;;;;;;33.89;45.72;99461.91;5054265;28;20025;-84
2023/06/20 10:27:28;;;;;;;14.32;12.90;;;;;;;33.73;45.98;99460.63;5054401;28;20506;-84
2023/06/20 10:29:54;;;;;;;13.18;12.07;;;;;;;33.46;46.52;99454.72;5055510;28;20025;-84
2023/06/20 10:32:19;;;;;;;13.10;12.02;;;;;;;33.47;47.01;99458.25;5055581;28;20036;-84
2023/06/20 10:34:44;;;;;;;13.20;12.00;;;;;;;33.28;46.82;99427.69;5054947;28;20060;-84
2023/06/20 10:37:25;;;;;;;13.13;12.02;;;;;;;33.43;46.68;99459.72;5051464;28;20056;-84
2023/06/20 10:39:57;;;;;;;12.55;11.43;;;;;;;33.45;47.17;99450.38;5045055;28;20035;-84
2023/06/20 10:42:35;;;;;;;12.88;11.77;;;;;;;33.62;47.41;99463.25;5047979;28;20024;-85
2023/06/20 10:45:29;;;;;;;11.35;9.80;;;;;;;33.78;45.60;99455.38;5039621;28;20111;-84
2023/06/20 10:47:55;;;;;;;11.27;10.38;;;;;;;33.93;45.28;99454.97;5040437;28;20029;-85
2023/06/20 10:50:21;;;;;;;10.77;9.75;;;;;;;33.86;44.95;99421.00;5045086;28;20025;-85
2023/06/20 10:52:47;;;;;;;12.25;11.15;;;;;;;33.96;44.85;99432.94;5054791;28;20029;-85
2023/06/20 10:55:13;;;;;;;12.15;11.15;;;;;;;34.06;45.33;99472.94;5053661;28;20024;-84
2023/06/20 10:57:46;;;;;;;10.68;9.80;;;;;;;33.94;44.67;99437.72;5055336;28;20025;-85
2023/06/20 11:00:17;;;;;;;11.70;10.65;;;;;;;33.97;44.34;99441.88;5055011;28;20114;-85
2023/06/20 11:02:46;;;;;;;11.20;10.30;;;;;;;34.06;45.40;99442.38;5055048;28;20109;-85
2023/06/20 11:05:12;;;;;;;10.85;10.00;;;;;;;34.14;45.26;99442.88;5053491;28;20033;-85
2023/06/20 11:07:59;;;;;;;12.07;10.95;;;;;;;34.24;44.69;99450.41;5054706;28;20032;-85
2023/06/20 11:10:35;;;;;;;11.80;10.68;;;;;;;34.29;44.82;99455.94;5054815;28;20373;-85
2023/06/20 11:13:03;;;;;;;13.15;11.88;;;;;;;34.19;44.63;99450.28;5054398;28;20025;-85
2023/06/20 11:15:29;;;;;;;12.00;10.90;;;;;;;34.17;44.40;99450.50;5054724;28;20032;-85
2023/06/20 11:17:57;;;;;;;11.75;10.65;;;;;;;34.15;44.56;99444.50;5054380;28;20025;-85
2023/06/20 11:20:24;;;;;;;12.90;10.95;;;;;;;33.89;45.50;99409.75;5054498;28;20036;-85